Parker, WA (98939)

10:11 PM PDT on August 27, 2016 (GMT -0700)
Sunnyslope Ranch | | Change Station

Elev 1023 ft 46.48 °N, 120.36 °W | Updated 20 seconds ago

Clear
Clear
67.1 °F
Feels Like 67.1 °F
N
2.2
Wind Variable Wind from NW
Gusts 8.3 mph

Today
High -- | Low -- °F
--% Chance of Precip.
Yesterday
High -- | Low -- °F
Precip. -- in
Pressure 29.85 in
Visibility 10.0 miles
Clouds Clear
Dew Point 23 °F
Humidity 22%
Rainfall 0.00 in
Snow Depth Not available.
6:16 AM 7:49 PM
Waning Crescent, 18% visible
METAR KYKM 280453Z 35007KT 10SM CLR 22/06 A2987 RMK AO2 SLP108 T02220061 $
Pressure 29.85 in
Visibility 10.0 miles
Clouds Clear
Dew Point 23 °F
Humidity 22%
Rainfall 0.00 in
Snow Depth Not available.
6:16 AM 7:49 PM
Waning Crescent, 18% visible
METAR KYKM 280453Z 35007KT 10SM CLR 22/06 A2987 RMK AO2 SLP108 T02220061 $

10-Day Weather Forecast

Almanac

Astronomy

Aug. 27, 2016 Rise Set
Actual Time
Civil Twilight
Nautical Twilight
Astronomical Twilight
Moon
Length of Visible Light
Length of Day
Tomorrow will be .
, % of the Moon is Illuminated

Today's Extremes

State Highs State Lows

Community

WunderPhotos

Upload Photos

1,935,531 photos uploaded!

WunderBlog® & News

Nearby

Air Quality

  Air Quality AQ Index Pollutant
Not available.

Snow Depth

Station Depth Elevation

Earthquake Activity

City Distance Mag. Time & Date
Minimum magnitude displayed is 2.5.

Coastal Water Temperatures

Place Temperature

Stations

Nearby Weather Stations

Station Location Temp. Windchill Dew Point Humidity Wind Precip. Elev Updated Type
                   

Watches & Warnings

There are currently no watches in effect.